createdAt,value
2022-08-30T00:02:25.367Z,25.17
2022-08-30T00:04:54.401Z,25.58
2022-08-30T00:07:22.246Z,25.45
2022-08-30T00:09:49.447Z,25.58
2022-08-30T00:12:16.789Z,25.57
2022-08-30T00:14:43.992Z,25.74
2022-08-30T00:17:13.663Z,25.76
2022-08-30T00:19:42.740Z,25.22
2022-08-30T00:22:10.333Z,25.61
2022-08-30T00:24:38.351Z,25.66
2022-08-30T00:27:08.155Z,25.48
2022-08-30T00:29:37.864Z,25.58
2022-08-30T00:32:05.681Z,25.26
2022-08-30T00:34:32.981Z,25.48
2022-08-30T00:37:00.446Z,25.68
2022-08-30T00:39:28.972Z,25.49
2022-08-30T00:41:56.179Z,25.32
2022-08-30T00:44:24.280Z,25.33
2022-08-30T00:46:53.955Z,25.35
2022-08-30T00:49:21.080Z,25.34
2022-08-30T00:51:48.735Z,24.84
2022-08-30T00:54:17.050Z,25.19
2022-08-30T00:56:44.658Z,25.27
2022-08-30T00:59:12.127Z,25.40
2022-08-30T01:01:39.498Z,25.58
2022-08-30T01:04:08.880Z,25.34
2022-08-30T01:06:39.995Z,25.03
2022-08-30T01:09:09.106Z,25.34
2022-08-30T01:11:38.196Z,24.87
2022-08-30T01:14:06.754Z,24.99
2022-08-30T01:16:35.594Z,25.15
2022-08-30T01:19:03.924Z,24.92
2022-08-30T01:21:51.754Z,24.88
2022-08-30T01:24:22.111Z,25.39
2022-08-30T01:26:49.285Z,25.06
2022-08-30T01:29:23.149Z,25.43
2022-08-30T01:31:50.309Z,25.61
2022-08-30T01:34:17.675Z,25.28
2022-08-30T01:36:46.552Z,25.44
2022-08-30T01:39:16.654Z,25.22
2022-08-30T01:41:44.009Z,25.34
2022-08-30T01:44:13.727Z,25.80
2022-08-30T01:46:46.580Z,25.55
2022-08-30T01:49:23.066Z,25.26
2022-08-30T01:52:00.582Z,25.34
2022-08-30T01:54:37.954Z,24.63
2022-08-30T01:57:12.099Z,25.46
2022-08-30T01:59:42.967Z,24.85
2022-08-30T02:02:11.022Z,24.84
2022-08-30T02:04:38.257Z,24.31
2022-08-30T02:07:05.738Z,24.68
2022-08-30T02:09:35.252Z,24.82
2022-08-30T02:12:05.237Z,24.88
2022-08-30T02:14:32.490Z,25.15
2022-08-30T02:16:59.673Z,25.23
2022-08-30T02:19:26.797Z,24.97
2022-08-30T02:21:53.917Z,25.11
2022-08-30T02:24:21.342Z,24.84
2022-08-30T02:26:53.164Z,25.03
2022-08-30T02:29:22.501Z,24.81
2022-08-30T02:31:50.160Z,24.53
2022-08-30T02:34:21.271Z,24.68
2022-08-30T02:36:48.874Z,24.54
2022-08-30T02:39:16.575Z,23.94
2022-08-30T02:41:43.948Z,24.22
2022-08-30T02:44:11.512Z,24.16
2022-08-30T02:46:40.175Z,24.54
2022-08-30T02:49:30.266Z,24.33
2022-08-30T02:51:56.012Z,24.65
2022-08-30T02:54:23.120Z,24.41
2022-08-30T02:56:51.181Z,24.61
2022-08-30T02:59:18.912Z,24.48
2022-08-30T03:01:46.168Z,24.36
2022-08-30T03:04:13.460Z,24.74
2022-08-30T03:06:40.595Z,24.32
2022-08-30T03:09:07.849Z,24.36
2022-08-30T03:11:34.979Z,24.72
2022-08-30T03:14:04.387Z,24.18
2022-08-30T03:16:31.609Z,24.79
2022-08-30T03:18:58.860Z,24.17
2022-08-30T03:21:28.024Z,24.61
2022-08-30T03:23:55.179Z,24.17
2022-08-30T03:26:22.323Z,24.26
2022-08-30T03:28:49.597Z,24.33
2022-08-30T03:31:16.784Z,24.12
2022-08-30T03:33:44.098Z,23.43
2022-08-30T03:36:12.150Z,24.06
2022-08-30T03:38:43.019Z,23.89
2022-08-30T03:41:10.469Z,23.90
2022-08-30T03:43:37.653Z,23.73
2022-08-30T03:46:11.089Z,24.33
2022-08-30T03:48:38.307Z,24.15
2022-08-30T03:51:06.028Z,24.25
2022-08-30T03:53:33.526Z,24.13
2022-08-30T03:56:02.187Z,24.34
2022-08-30T03:58:29.313Z,24.43
2022-08-30T04:00:56.490Z,24.02
2022-08-30T04:03:26.118Z,23.60
2022-08-30T04:05:54.652Z,24.06
2022-08-30T04:08:23.069Z,23.71
2022-08-30T04:10:50.864Z,24.42
2022-08-30T04:13:18.157Z,24.49
2022-08-30T04:15:45.402Z,24.21
2022-08-30T04:18:12.790Z,24.22
2022-08-30T04:20:40.006Z,24.24
2022-08-30T04:23:07.814Z,24.65
2022-08-30T04:25:39.312Z,24.52
2022-08-30T04:28:07.548Z,24.11
2022-08-30T04:30:38.443Z,24.49
2022-08-30T04:33:05.637Z,24.89
2022-08-30T04:35:32.785Z,24.25
2022-08-30T04:38:00.008Z,24.21
2022-08-30T04:40:27.201Z,24.49
2022-08-30T04:42:54.624Z,24.59
2022-08-30T04:45:22.274Z,24.24
2022-08-30T04:47:49.566Z,23.72
2022-08-30T04:50:23.221Z,24.00
2022-08-30T04:52:50.478Z,23.86
2022-08-30T04:55:20.262Z,24.57
2022-08-30T04:57:48.709Z,24.37
2022-08-30T05:00:16.114Z,24.10
2022-08-30T05:02:43.368Z,24.60
2022-08-30T05:05:39.862Z,24.62
2022-08-30T05:08:09.750Z,24.05
2022-08-30T05:10:40.866Z,24.43
2022-08-30T05:13:10.960Z,24.20
2022-08-30T05:15:41.535Z,24.67
2022-08-30T05:18:11.405Z,24.42
2022-08-30T05:20:43.310Z,24.43
2022-08-30T05:23:10.890Z,24.01
2022-08-30T05:25:41.017Z,24.87
2022-08-30T05:28:09.335Z,24.72
2022-08-30T05:30:38.458Z,24.90
2022-08-30T05:33:05.767Z,24.90
2022-08-30T05:35:33.100Z,24.61
2022-08-30T05:38:02.706Z,24.78
2022-08-30T05:40:30.367Z,25.35
2022-08-30T05:42:58.583Z,25.60
2022-08-30T05:45:25.801Z,25.49
2022-08-30T05:47:52.964Z,25.51
2022-08-30T05:50:20.308Z,25.33
2022-08-30T05:52:47.444Z,25.79
2022-08-30T05:55:19.024Z,25.83
2022-08-30T05:57:46.340Z,25.48
2022-08-30T06:00:18.135Z,24.93
2022-08-30T06:02:46.063Z,25.33
2022-08-30T06:05:15.826Z,25.70
2022-08-30T06:07:43.896Z,26.18
2022-08-30T06:10:12.571Z,26.13
2022-08-30T06:12:40.202Z,26.13
2022-08-30T06:15:08.522Z,25.89
2022-08-30T06:17:39.914Z,25.54
2022-08-30T06:20:10.769Z,26.06
2022-08-30T06:22:39.018Z,26.47
2022-08-30T06:25:07.133Z,26.13
2022-08-30T06:27:34.336Z,26.52
2022-08-30T06:30:01.813Z,26.54
2022-08-30T06:32:29.158Z,26.78
2022-08-30T06:34:56.321Z,26.36
2022-08-30T06:37:30.126Z,26.89
2022-08-30T06:40:38.385Z,27.17
2022-08-30T06:43:05.467Z,27.47
2022-08-30T06:45:35.552Z,26.20
2022-08-30T06:48:03.217Z,27.14
2022-08-30T06:50:32.034Z,27.47
2022-08-30T06:53:05.656Z,27.16
2022-08-30T06:55:36.127Z,26.89
2022-08-30T06:58:04.578Z,27.81
2022-08-30T07:00:31.832Z,27.01
2022-08-30T07:02:59.276Z,27.24
2022-08-30T07:05:26.409Z,27.55
2022-08-30T07:07:54.580Z,27.20
2022-08-30T07:10:22.236Z,26.94
2022-08-30T07:12:49.836Z,27.64
2022-08-30T07:15:20.645Z,27.64
2022-08-30T07:18:06.519Z,27.33
2022-08-30T07:20:40.624Z,27.29
2022-08-30T07:23:09.503Z,27.48
2022-08-30T07:25:41.490Z,26.94
2022-08-30T07:28:12.734Z,26.96
2022-08-30T07:30:41.365Z,27.61
2022-08-30T07:33:09.379Z,27.99
2022-08-30T07:35:37.362Z,27.69
2022-08-30T07:38:04.821Z,27.86
2022-08-30T07:40:34.545Z,27.85
2022-08-30T07:43:02.409Z,28.15
2022-08-30T07:45:29.570Z,28.07
2022-08-30T07:47:57.776Z,28.26
2022-08-30T07:50:25.239Z,28.87
2022-08-30T07:52:52.379Z,28.44
2022-08-30T07:55:21.912Z,28.51
2022-08-30T07:57:49.539Z,28.17
2022-08-30T08:00:17.024Z,28.81
2022-08-30T08:02:45.292Z,29.02
2022-08-30T08:05:17.675Z,28.01
2022-08-30T08:07:46.159Z,28.60
2022-08-30T08:10:13.818Z,28.90
2022-08-30T08:12:45.816Z,29.21
2022-08-30T08:15:13.070Z,29.32
2022-08-30T08:17:40.172Z,29.62
2022-08-30T08:20:07.967Z,29.62
2022-08-30T08:22:40.074Z,29.62
2022-08-30T08:25:08.040Z,29.79
2022-08-30T08:27:35.104Z,29.79
2022-08-30T08:30:05.581Z,30.23
2022-08-30T08:32:35.241Z,29.86
2022-08-30T08:35:02.338Z,30.15
2022-08-30T08:37:31.715Z,31.76
2022-08-30T08:39:58.897Z,33.02
2022-08-30T08:42:41.873Z,34.13
2022-08-30T08:45:17.562Z,34.30
2022-08-30T08:48:26.466Z,33.70
2022-08-30T08:51:16.107Z,34.25
2022-08-30T08:53:53.554Z,33.72
2022-08-30T08:56:23.183Z,33.90
2022-08-30T08:58:57.878Z,32.47
2022-08-30T09:01:30.459Z,34.03
2022-08-30T09:04:02.095Z,34.80
2022-08-30T09:06:46.367Z,35.38
2022-08-30T09:09:18.911Z,36.42
2022-08-30T09:11:48.082Z,36.10
2022-08-30T09:14:21.954Z,37.30
2022-08-30T09:16:51.874Z,37.85
2022-08-30T09:19:39.822Z,37.10
2022-08-30T09:22:33.670Z,35.96
2022-08-30T09:25:11.016Z,36.60
2022-08-30T09:27:48.473Z,36.93
2022-08-30T09:30:18.670Z,38.21
2022-08-30T09:33:21.424Z,37.22
2022-08-30T09:35:52.272Z,37.71
2022-08-30T09:38:28.959Z,36.28
2022-08-30T09:40:59.855Z,35.24
2022-08-30T09:43:32.962Z,34.69
2022-08-30T09:46:02.588Z,35.27
2022-08-30T09:48:42.517Z,35.52
2022-08-30T09:51:20.274Z,36.37
2022-08-30T09:57:12.898Z,37.68
2022-08-30T10:00:07.002Z,37.08
2022-08-30T10:03:03.294Z,35.90
2022-08-30T10:05:41.924Z,35.95
2022-08-30T10:08:38.325Z,36.78
2022-08-30T10:11:24.338Z,36.75
2022-08-30T10:14:15.523Z,36.28
2022-08-30T10:17:10.046Z,34.79
2022-08-30T10:19:51.370Z,34.20
2022-08-30T10:22:31.499Z,34.72
2022-08-30T10:25:16.129Z,34.85
2022-08-30T10:27:54.197Z,35.49
2022-08-30T10:30:23.125Z,34.93
2022-08-30T10:32:51.146Z,33.90
2022-08-30T10:35:34.069Z,34.97
2022-08-30T10:38:16.290Z,34.69
2022-08-30T10:41:09.034Z,35.45
2022-08-30T10:44:08.208Z,35.72
2022-08-30T10:46:48.070Z,36.47
2022-08-30T10:49:21.431Z,36.33
2022-08-30T10:52:14.077Z,36.20
2022-08-30T10:55:02.895Z,37.12
2022-08-30T10:57:32.664Z,37.24
2022-08-30T11:00:27.284Z,38.02
2022-08-30T11:03:24.744Z,37.01
2022-08-30T11:06:54.894Z,36.12
2022-08-30T11:09:39.231Z,35.97
2022-08-30T11:12:34.283Z,36.77
2022-08-30T11:15:24.780Z,35.71
2022-08-30T11:18:01.664Z,36.95
2022-08-30T11:20:44.812Z,37.03
2022-08-30T11:23:38.833Z,35.30
2022-08-30T11:26:15.955Z,35.65
2022-08-30T11:28:48.395Z,35.48
2022-08-30T11:31:21.049Z,34.74
2022-08-30T11:34:00.946Z,35.15
2022-08-30T11:36:46.148Z,33.20
2022-08-30T11:39:47.638Z,33.30
2022-08-30T11:42:32.110Z,32.58
2022-08-30T11:45:36.231Z,33.72
2022-08-30T11:48:10.050Z,33.73
2022-08-30T11:51:06.041Z,34.43
2022-08-30T11:53:51.005Z,35.07
2022-08-30T11:56:33.619Z,34.85
2022-08-30T11:59:47.292Z,35.20
2022-08-30T12:02:59.330Z,35.49
2022-08-30T12:05:39.746Z,36.29
2022-08-30T12:08:08.113Z,35.81
2022-08-30T12:10:57.473Z,35.97
2022-08-30T12:13:37.149Z,34.80
2022-08-30T12:16:09.468Z,34.75
2022-08-30T12:18:43.350Z,34.57
2022-08-30T12:21:21.365Z,33.90
2022-08-30T12:24:04.172Z,32.71
2022-08-30T12:26:36.067Z,32.70
2022-08-30T12:29:16.703Z,32.39
2022-08-30T12:32:00.383Z,31.93
2022-08-30T12:34:50.685Z,32.55
2022-08-30T12:37:38.074Z,32.92
2022-08-30T12:40:14.007Z,33.88
2022-08-30T12:42:52.420Z,33.57
2022-08-30T12:45:24.531Z,34.28
2022-08-30T12:48:05.837Z,34.63
2022-08-30T12:50:51.833Z,34.72
2022-08-30T12:53:42.183Z,35.16
2022-08-30T12:56:13.713Z,35.12
2022-08-30T12:58:50.987Z,33.59
2022-08-30T13:01:37.384Z,32.22
2022-08-30T13:04:27.463Z,32.68
2022-08-30T13:07:23.964Z,33.09
2022-08-30T13:09:59.102Z,33.34
2022-08-30T13:12:28.885Z,33.30
2022-08-30T13:15:16.689Z,31.82
2022-08-30T13:17:46.679Z,31.81
2022-08-30T13:20:16.743Z,32.15
2022-08-30T13:23:09.824Z,31.46
2022-08-30T13:25:39.713Z,31.61
2022-08-30T13:28:07.826Z,31.09
2022-08-30T13:30:37.986Z,31.48
2022-08-30T13:33:05.076Z,29.51
2022-08-30T13:35:33.287Z,30.84
2022-08-30T13:38:04.338Z,30.95
2022-08-30T13:40:31.581Z,31.21
2022-08-30T13:42:59.283Z,31.12
2022-08-30T13:45:44.673Z,30.66
2022-08-30T13:48:13.984Z,30.79
2022-08-30T13:50:43.764Z,30.77
2022-08-30T13:53:13.270Z,29.99
2022-08-30T13:55:43.035Z,30.14
2022-08-30T13:58:13.716Z,30.48
2022-08-30T14:00:41.278Z,30.84
2022-08-30T14:03:08.425Z,31.10
2022-08-30T14:06:15.679Z,31.77
2022-08-30T14:08:48.897Z,32.02
2022-08-30T14:11:22.888Z,32.01
2022-08-30T14:16:42.469Z,32.47
2022-08-30T14:19:14.057Z,32.65
2022-08-30T14:21:41.984Z,32.81
2022-08-30T14:24:10.999Z,33.22
2022-08-30T14:26:49.668Z,32.18
2022-08-30T14:29:22.252Z,32.80
2022-08-30T14:31:52.177Z,31.68
2022-08-30T14:34:19.444Z,31.40
2022-08-30T14:36:47.451Z,31.99
2022-08-30T14:39:18.823Z,31.92
2022-08-30T14:41:53.342Z,32.29
2022-08-30T14:44:22.572Z,31.37
2022-08-30T14:46:58.603Z,31.12
2022-08-30T14:49:27.707Z,32.39
2022-08-30T14:51:55.492Z,31.61
2022-08-30T14:54:26.746Z,31.36
2022-08-30T14:56:55.077Z,31.46
2022-08-30T14:59:23.434Z,31.40
2022-08-30T15:01:50.487Z,31.00
2022-08-30T15:04:21.436Z,30.88
2022-08-30T15:06:50.441Z,30.97
2022-08-30T15:09:23.592Z,30.78
2022-08-30T15:11:53.519Z,30.83
2022-08-30T15:14:30.838Z,30.99
2022-08-30T15:16:59.593Z,30.80
2022-08-30T15:19:27.049Z,30.24
2022-08-30T15:21:54.396Z,30.44
2022-08-30T15:24:25.016Z,30.57
2022-08-30T15:27:00.399Z,30.43
2022-08-30T15:29:30.723Z,30.70
2022-08-30T15:32:01.935Z,30.84
2022-08-30T15:34:30.261Z,30.92
2022-08-30T15:37:00.779Z,30.63
2022-08-30T15:39:27.976Z,29.95
2022-08-30T15:42:00.688Z,29.74
2022-08-30T15:44:34.520Z,29.51
2022-08-30T15:47:04.538Z,28.23
2022-08-30T15:49:32.065Z,28.89
2022-08-30T15:52:05.488Z,29.10
2022-08-30T15:54:34.870Z,29.65
2022-08-30T15:57:02.208Z,28.98
2022-08-30T15:59:33.460Z,28.99
2022-08-30T16:02:00.595Z,29.12
2022-08-30T16:04:27.803Z,28.90
2022-08-30T16:06:54.924Z,29.19
2022-08-30T16:09:29.961Z,29.00
2022-08-30T16:12:00.684Z,28.62
2022-08-30T16:14:28.042Z,29.08
2022-08-30T16:16:55.479Z,28.93
2022-08-30T16:19:22.764Z,28.98
2022-08-30T16:21:50.239Z,28.29
2022-08-30T16:24:18.965Z,28.02
2022-08-30T16:26:50.249Z,28.28
2022-08-30T16:29:17.521Z,28.11
2022-08-30T16:31:45.343Z,27.97
2022-08-30T16:34:17.343Z,27.15
2022-08-30T16:36:47.518Z,27.58
2022-08-30T16:39:17.752Z,27.37
2022-08-30T16:41:45.637Z,27.30
2022-08-30T16:44:13.741Z,27.18
2022-08-30T16:46:43.453Z,26.64
2022-08-30T16:49:19.707Z,27.52
2022-08-30T16:51:48.884Z,26.29
2022-08-30T16:54:17.604Z,26.93
2022-08-30T16:56:45.717Z,27.05
2022-08-30T16:59:14.605Z,26.94
2022-08-30T17:01:44.743Z,27.54
2022-08-30T17:04:15.895Z,28.03
2022-08-30T17:06:50.097Z,27.73
2022-08-30T17:09:20.516Z,27.00
2022-08-30T17:11:50.627Z,26.72
2022-08-30T17:14:27.608Z,27.59
2022-08-30T17:17:00.409Z,27.17
2022-08-30T17:19:28.803Z,27.28
2022-08-30T17:21:58.122Z,27.13
2022-08-30T17:24:30.910Z,27.18
2022-08-30T17:27:07.803Z,27.34
2022-08-30T17:29:35.088Z,27.34
2022-08-30T17:32:04.206Z,27.07
2022-08-30T17:34:39.902Z,26.18
2022-08-30T17:37:10.893Z,25.01
2022-08-30T17:39:41.200Z,25.38
2022-08-30T17:42:08.552Z,25.94
2022-08-30T17:44:42.311Z,26.44
2022-08-30T17:47:10.328Z,26.07
2022-08-30T17:49:40.909Z,26.57
2022-08-30T17:52:08.537Z,26.35
2022-08-30T17:54:41.205Z,26.04
2022-08-30T17:57:13.275Z,26.18
2022-08-30T17:59:45.274Z,25.58
2022-08-30T18:02:15.049Z,25.68
2022-08-30T18:04:43.700Z,26.01
2022-08-30T18:07:17.506Z,25.87
2022-08-30T18:09:47.926Z,26.08
2022-08-30T18:12:16.631Z,26.11
2022-08-30T18:14:47.208Z,26.31
2022-08-30T18:17:21.864Z,25.64
2022-08-30T18:19:49.743Z,26.36
2022-08-30T18:25:08.407Z,26.13
2022-08-30T18:30:31.146Z,25.63
2022-08-30T18:33:04.132Z,25.83
2022-08-30T18:35:34.106Z,26.08
2022-08-30T18:38:03.891Z,25.66
2022-08-30T18:40:31.308Z,25.72
2022-08-30T18:42:58.473Z,25.58
2022-08-30T18:45:25.696Z,25.76
2022-08-30T18:47:52.894Z,25.44
2022-08-30T18:50:20.829Z,25.32
2022-08-30T18:52:47.926Z,25.00
2022-08-30T18:55:17.708Z,25.44
2022-08-30T18:57:45.292Z,24.65
2022-08-30T19:00:17.143Z,25.09
2022-08-30T19:02:47.121Z,24.70
2022-08-30T19:05:16.910Z,25.09
2022-08-30T19:07:49.296Z,25.11
2022-08-30T19:10:26.395Z,24.63
2022-08-30T19:12:53.738Z,25.02
2022-08-30T19:15:22.961Z,24.63
2022-08-30T19:17:53.713Z,24.77
2022-08-30T19:20:23.631Z,24.92
2022-08-30T19:25:42.214Z,24.76
2022-08-30T19:28:11.002Z,24.73
2022-08-30T19:30:38.881Z,24.03
2022-08-30T19:33:06.461Z,24.45
2022-08-30T19:35:33.774Z,24.35
2022-08-30T19:38:01.097Z,24.48
2022-08-30T19:40:28.807Z,24.34
2022-08-30T19:42:56.080Z,24.23
2022-08-30T19:45:24.401Z,24.30
2022-08-30T19:47:53.374Z,24.19
2022-08-30T19:50:25.039Z,23.97
2022-08-30T19:52:54.771Z,23.85
2022-08-30T19:55:28.468Z,23.70
2022-08-30T19:57:57.150Z,23.61
2022-08-30T20:00:24.357Z,23.21
2022-08-30T20:02:52.086Z,23.21
2022-08-30T20:05:21.444Z,23.60
2022-08-30T20:07:51.052Z,23.65
2022-08-30T20:10:26.401Z,23.63
2022-08-30T20:12:55.782Z,23.66
2022-08-30T20:15:26.381Z,23.58
2022-08-30T20:18:13.629Z,23.38
2022-08-30T20:20:48.541Z,23.34
2022-08-30T20:23:17.703Z,23.27
2022-08-30T20:24:27.958Z,26.04
2022-08-30T20:24:28.064Z,25.67
2022-08-30T20:24:33.406Z,24.92
2022-08-30T20:25:50.848Z,23.40
2022-08-30T20:28:19.444Z,23.41
2022-08-30T20:30:47.340Z,22.84
2022-08-30T20:33:14.610Z,22.91
2022-08-30T20:35:49.041Z,22.73
2022-08-30T20:38:21.852Z,22.68
2022-08-30T20:40:56.845Z,22.62
2022-08-30T20:43:31.674Z,22.99
2022-08-30T20:45:59.460Z,22.84
2022-08-30T20:48:31.506Z,22.48
2022-08-30T20:51:01.979Z,22.64
2022-08-30T20:53:29.612Z,21.73
2022-08-30T20:55:56.809Z,22.05
2022-08-30T20:58:24.042Z,22.28
2022-08-30T21:00:54.166Z,22.35
2022-08-30T21:03:28.216Z,22.33
2022-08-30T21:06:00.072Z,22.64
2022-08-30T21:08:27.697Z,22.63
2022-08-30T21:10:55.469Z,22.80
2022-08-30T21:13:23.204Z,22.61
2022-08-30T21:16:00.548Z,22.58
2022-08-30T21:18:34.112Z,22.60
2022-08-30T21:21:21.245Z,22.44
2022-08-30T21:23:53.486Z,22.55
2022-08-30T21:26:20.823Z,22.49
2022-08-30T21:28:52.990Z,22.39
2022-08-30T21:31:23.135Z,22.35
2022-08-30T21:33:52.294Z,22.22
2022-08-30T21:36:41.290Z,22.09
2022-08-30T21:39:08.918Z,21.90
2022-08-30T21:41:37.475Z,21.74
2022-08-30T21:44:10.225Z,21.90
2022-08-30T21:46:37.900Z,21.85
2022-08-30T21:49:09.727Z,21.82
2022-08-30T21:51:40.713Z,22.08
2022-08-30T21:54:09.947Z,22.17
2022-08-30T21:56:41.806Z,22.30
2022-08-30T21:59:14.606Z,21.97
2022-08-30T22:01:43.202Z,22.12
2022-08-30T22:04:11.305Z,22.25
2022-08-30T22:06:40.263Z,22.28
2022-08-30T22:09:09.847Z,22.11
2022-08-30T22:11:37.631Z,22.40
2022-08-30T22:14:06.210Z,22.57
2022-08-30T22:16:33.867Z,22.63
2022-08-30T22:19:04.043Z,22.96
2022-08-30T22:21:33.695Z,23.02
2022-08-30T22:24:03.858Z,23.05
2022-08-30T22:26:33.096Z,23.21
2022-08-30T22:29:00.318Z,23.02
2022-08-30T22:31:27.667Z,22.91
2022-08-30T22:33:55.103Z,22.93
2022-08-30T22:36:32.628Z,22.62
2022-08-30T22:39:01.336Z,22.83
2022-08-30T22:41:31.354Z,23.03
2022-08-30T22:43:58.924Z,22.91
2022-08-30T22:46:34.236Z,22.65
2022-08-30T22:49:04.923Z,22.57
2022-08-30T22:51:32.284Z,22.81
2022-08-30T22:54:10.631Z,22.73
2022-08-30T22:56:39.009Z,22.93
2022-08-30T22:59:08.938Z,23.07
2022-08-30T23:01:38.909Z,23.03
2022-08-30T23:04:08.241Z,22.98
2022-08-30T23:06:35.603Z,23.12
2022-08-30T23:09:06.433Z,23.15
2022-08-30T23:11:35.816Z,23.08
2022-08-30T23:14:04.378Z,23.04
2022-08-30T23:16:34.647Z,23.12
2022-08-30T23:19:01.899Z,22.99
2022-08-30T23:21:30.194Z,23.20
2022-08-30T23:24:17.248Z,23.09
2022-08-30T23:27:03.721Z,22.84
2022-08-30T23:29:49.906Z,23.07
2022-08-30T23:32:35.732Z,22.96
2022-08-30T23:35:25.105Z,22.52
2022-08-30T23:38:17.136Z,22.89
2022-08-30T23:41:03.494Z,23.02
2022-08-30T23:43:49.177Z,22.56
2022-08-30T23:46:35.341Z,22.81
2022-08-30T23:49:20.897Z,22.92
2022-08-30T23:52:06.406Z,22.72
2022-08-30T23:54:55.774Z,22.61
2022-08-30T23:57:44.684Z,22.73
